CheckWX is a tool to help pilots better visualize weather data.  It is not intended as a substitute for an official pre-flight weather briefing.

07:11:55 UTC

OEWD TAF
Wadi Al Dawasir Airport
Saudi Arabia
TAF OEWD 192300Z 2000/2106 VRB03KT 7000 FEW030 BECMG 2006/2008 09008G18KT TEMPO 2006/2014 4000 DU BLDU

Jun-20@
00:00 UTC

Jun-20 @ 00:00 UTC

Jun-20@
06:00 UTC

Jun-20 @ 06:00 UTC

TAF OEWD 192300Z 2000/2106 VRB03KT 7000 FEW030

Expired

Wind
  • Variable at 3 KTS
Cloud Levels
  • Few at 3,000' AGL

Jun-20@
06:00 UTC

Jun-20 @ 06:00 UTC

Jun-20@
14:00 UTC

Jun-20 @ 14:00 UTC

TEMPO 2006/2014 4000 DU BLDU

Temporary

Temporary Changes expected for less than half the time period

Conditions
Dust, Blowing Dust

Jun-20@
06:00 UTC

Jun-20 @ 06:00 UTC

Jun-21@
06:00 UTC

Jun-21 @ 06:00 UTC

BECMG 2006/2008 09008G18KT

Becoming

Becoming Conditions expected by Thu, Jun 20, 2019 @ 08:00 UTC

Wind
  • 090° at 8 KTS
  • {Gusting to 18 KTS
Cloud Levels
  • Few at 3,000' AGL